sensor_id;sensor_type;location;lat;lon;timestamp;pressure;altitude;pressure_sealevel;temperature;humidity
11212;BME280;5663;50.864;12.096;2023-09-19T00:00:25;98639.31;;;18.56;83.35
11212;BME280;5663;50.864;12.096;2023-09-19T00:03:02;98635.97;;;18.54;83.58
11212;BME280;5663;50.864;12.096;2023-09-19T00:05:38;98640.56;;;18.52;83.71
11212;BME280;5663;50.864;12.096;2023-09-19T00:08:23;98648.47;;;18.52;83.53
11212;BME280;5663;50.864;12.096;2023-09-19T00:11:01;98644.47;;;18.48;83.46
11212;BME280;5663;50.864;12.096;2023-09-19T00:13:48;98645.00;;;18.52;83.40
11212;BME280;5663;50.864;12.096;2023-09-19T00:16:22;98649.47;;;18.51;83.84
11212;BME280;5663;50.864;12.096;2023-09-19T00:18:59;98631.59;;;18.45;83.45
11212;BME280;5663;50.864;12.096;2023-09-19T00:21:41;98631.31;;;18.48;83.39
11212;BME280;5663;50.864;12.096;2023-09-19T00:24:18;98621.13;;;18.35;83.44
11212;BME280;5663;50.864;12.096;2023-09-19T00:27:06;98633.25;;;18.46;83.67
11212;BME280;5663;50.864;12.096;2023-09-19T00:29:40;98627.97;;;18.46;83.65
11212;BME280;5663;50.864;12.096;2023-09-19T00:32:14;98635.06;;;18.45;83.54
11212;BME280;5663;50.864;12.096;2023-09-19T00:34:57;98644.38;;;18.40;83.83
11212;BME280;5663;50.864;12.096;2023-09-19T00:37:30;98638.03;;;18.33;83.69
11212;BME280;5663;50.864;12.096;2023-09-19T00:43:54;98644.13;;;18.33;83.27
11212;BME280;5663;50.864;12.096;2023-09-19T00:46:43;98642.59;;;18.31;83.04
11212;BME280;5663;50.864;12.096;2023-09-19T00:49:22;98658.38;;;18.31;82.88
11212;BME280;5663;50.864;12.096;2023-09-19T00:52:05;98654.09;;;18.30;82.95
11212;BME280;5663;50.864;12.096;2023-09-19T00:54:41;98659.38;;;18.30;82.63
11212;BME280;5663;50.864;12.096;2023-09-19T00:57:26;98652.47;;;18.29;82.69
11212;BME280;5663;50.864;12.096;2023-09-19T01:00:03;98656.06;;;18.28;82.97
11212;BME280;5663;50.864;12.096;2023-09-19T01:02:52;98669.06;;;18.29;82.98
11212;BME280;5663;50.864;12.096;2023-09-19T01:05:28;98663.97;;;18.28;82.74
11212;BME280;5663;50.864;12.096;2023-09-19T01:08:14;98668.25;;;18.29;82.55
11212;BME280;5663;50.864;12.096;2023-09-19T01:10:52;98674.63;;;18.26;82.50
11212;BME280;5663;50.864;12.096;2023-09-19T01:13:30;98681.25;;;18.30;82.38
11212;BME280;5663;50.864;12.096;2023-09-19T01:16:06;98676.81;;;18.31;82.08
11212;BME280;5663;50.864;12.096;2023-09-19T01:19:05;98679.44;;;18.31;81.89
11212;BME280;5663;50.864;12.096;2023-09-19T01:21:57;98683.75;;;18.32;81.67
11212;BME280;5663;50.864;12.096;2023-09-19T01:28:09;98689.03;;;18.32;81.23
11212;BME280;5663;50.864;12.096;2023-09-19T01:31:03;98684.72;;;18.31;81.01
11212;BME280;5663;50.864;12.096;2023-09-19T01:33:58;98680.44;;;18.30;80.94
11212;BME280;5663;50.864;12.096;2023-09-19T01:36:51;98676.03;;;18.20;80.61
11212;BME280;5663;50.864;12.096;2023-09-19T01:39:32;98699.56;;;18.32;80.59
11212;BME280;5663;50.864;12.096;2023-09-19T01:42:19;98700.50;;;18.31;80.60
11212;BME280;5663;50.864;12.096;2023-09-19T01:45:26;98704.00;;;18.31;80.41
11212;BME280;5663;50.864;12.096;2023-09-19T01:48:12;98703.13;;;18.31;80.15
11212;BME280;5663;50.864;12.096;2023-09-19T01:50:56;98686.69;;;18.29;79.98
11212;BME280;5663;50.864;12.096;2023-09-19T01:53:30;98706.22;;;18.26;80.17
11212;BME280;5663;50.864;12.096;2023-09-19T01:56:23;98703.72;;;18.25;80.27
11212;BME280;5663;50.864;12.096;2023-09-19T01:59:17;98706.09;;;18.18;80.18
11212;BME280;5663;50.864;12.096;2023-09-19T02:13:58;98720.66;;;18.12;80.08
11212;BME280;5663;50.864;12.096;2023-09-19T02:25:09;98733.00;;;18.02;79.97
11212;BME280;5663;50.864;12.096;2023-09-19T02:41:37;98747.69;;;17.95;80.42
11212;BME280;5663;50.864;12.096;2023-09-19T02:44:48;98759.44;;;17.91;80.65
11212;BME280;5663;50.864;12.096;2023-09-19T03:48:59;98771.00;;;17.20;79.73
11212;BME280;5663;50.864;12.096;2023-09-19T03:51:38;98775.44;;;17.20;79.70
11212;BME280;5663;50.864;12.096;2023-09-19T03:54:08;98771.84;;;17.21;80.04
11212;BME280;5663;50.864;12.096;2023-09-19T03:56:44;98769.06;;;17.22;80.39
11212;BME280;5663;50.864;12.096;2023-09-19T03:59:19;98752.72;;;17.09;80.33
11212;BME280;5663;50.864;12.096;2023-09-19T04:01:50;98750.94;;;17.19;80.65
11212;BME280;5663;50.864;12.096;2023-09-19T04:04:43;98765.91;;;17.29;80.72
11212;BME280;5663;50.864;12.096;2023-09-19T04:07:20;98772.16;;;17.28;80.59
11212;BME280;5663;50.864;12.096;2023-09-19T04:09:49;98765.75;;;17.30;80.82
11212;BME280;5663;50.864;12.096;2023-09-19T04:16:20;98775.31;;;17.31;80.18
11212;BME280;5663;50.864;12.096;2023-09-19T04:18:55;98780.72;;;17.30;80.31
11212;BME280;5663;50.864;12.096;2023-09-19T04:21:27;98786.94;;;17.29;80.43
11212;BME280;5663;50.864;12.096;2023-09-19T04:24:05;98795.50;;;17.31;80.44
11212;BME280;5663;50.864;12.096;2023-09-19T04:26:39;98794.69;;;17.30;80.36
11212;BME280;5663;50.864;12.096;2023-09-19T04:29:11;98800.63;;;17.32;80.22
11212;BME280;5663;50.864;12.096;2023-09-19T04:31:42;98805.06;;;17.32;80.49
11212;BME280;5663;50.864;12.096;2023-09-19T04:34:20;98809.47;;;17.31;80.72
11212;BME280;5663;50.864;12.096;2023-09-19T04:36:58;98808.94;;;17.28;80.75
11212;BME280;5663;50.864;12.096;2023-09-19T04:39:36;98811.81;;;17.24;80.71
11212;BME280;5663;50.864;12.096;2023-09-19T04:42:05;98816.50;;;17.21;80.80
11212;BME280;5663;50.864;12.096;2023-09-19T04:44:32;98822.75;;;17.20;80.58
11212;BME280;5663;50.864;12.096;2023-09-19T04:47:04;98824.81;;;17.16;80.42
11212;BME280;5663;50.864;12.096;2023-09-19T04:49:32;98827.69;;;17.13;80.34
11212;BME280;5663;50.864;12.096;2023-09-19T04:52:06;98822.69;;;17.10;80.26
11212;BME280;5663;50.864;12.096;2023-09-19T04:54:58;98823.81;;;17.08;80.14
11212;BME280;5663;50.864;12.096;2023-09-19T04:57:27;98835.25;;;17.07;80.08
11212;BME280;5663;50.864;12.096;2023-09-19T05:00:18;98832.78;;;17.05;80.49
11212;BME280;5663;50.864;12.096;2023-09-19T05:02:50;98837.06;;;17.06;80.43
11212;BME280;5663;50.864;12.096;2023-09-19T05:05:19;98834.84;;;17.02;80.65
11212;BME280;5663;50.864;12.096;2023-09-19T05:07:51;98835.41;;;17.05;81.10
11212;BME280;5663;50.864;12.096;2023-09-19T05:10:51;98843.72;;;17.10;81.59
11212;BME280;5663;50.864;12.096;2023-09-19T05:14:51;98841.81;;;17.12;81.35
11212;BME280;5663;50.864;12.096;2023-09-19T05:16:59;98836.00;;;17.18;81.07
11212;BME280;5663;50.864;12.096;2023-09-19T05:19:26;98830.75;;;17.18;81.08
11212;BME280;5663;50.864;12.096;2023-09-19T05:21:54;98822.69;;;17.10;81.20
11212;BME280;5663;50.864;12.096;2023-09-19T05:24:25;98842.38;;;17.26;81.30
11212;BME280;5663;50.864;12.096;2023-09-19T05:26:53;98838.69;;;17.28;81.23
11212;BME280;5663;50.864;12.096;2023-09-19T05:29:28;98843.78;;;17.30;81.21
11212;BME280;5663;50.864;12.096;2023-09-19T05:32:05;98844.88;;;17.27;81.28
11212;BME280;5663;50.864;12.096;2023-09-19T05:34:49;98841.88;;;17.32;81.12
11212;BME280;5663;50.864;12.096;2023-09-19T05:37:19;98846.84;;;17.35;81.36
11212;BME280;5663;50.864;12.096;2023-09-19T05:39:55;98842.41;;;17.35;81.50
11212;BME280;5663;50.864;12.096;2023-09-19T05:42:41;98840.34;;;17.39;81.89
11212;BME280;5663;50.864;12.096;2023-09-19T05:45:21;98836.47;;;17.43;81.70
11212;BME280;5663;50.864;12.096;2023-09-19T05:48:28;98837.19;;;17.45;82.15
11212;BME280;5663;50.864;12.096;2023-09-19T05:51:13;98836.63;;;17.51;82.08
11212;BME280;5663;50.864;12.096;2023-09-19T05:54:33;98847.59;;;17.56;81.98
11212;BME280;5663;50.864;12.096;2023-09-19T05:57:05;98854.94;;;17.62;81.75
11212;BME280;5663;50.864;12.096;2023-09-19T05:59:36;98847.50;;;17.67;81.79
11212;BME280;5663;50.864;12.096;2023-09-19T06:02:10;98857.31;;;17.75;81.74
11212;BME280;5663;50.864;12.096;2023-09-19T06:04:43;98863.16;;;17.79;81.79
11212;BME280;5663;50.864;12.096;2023-09-19T06:07:11;98856.38;;;17.86;81.80
11212;BME280;5663;50.864;12.096;2023-09-19T06:09:40;98854.16;;;17.91;81.62
11212;BME280;5663;50.864;12.096;2023-09-19T06:12:11;98871.34;;;17.95;81.53
11212;BME280;5663;50.864;12.096;2023-09-19T06:14:44;98865.81;;;17.98;81.53
11212;BME280;5663;50.864;12.096;2023-09-19T06:17:13;98869.16;;;18.00;81.59
11212;BME280;5663;50.864;12.096;2023-09-19T06:19:43;98876.91;;;18.02;81.50
11212;BME280;5663;50.864;12.096;2023-09-19T06:22:15;98857.22;;;17.86;81.88
11212;BME280;5663;50.864;12.096;2023-09-19T06:24:46;98891.59;;;18.04;82.00
11212;BME280;5663;50.864;12.096;2023-09-19T06:27:16;98890.47;;;18.07;82.13
11212;BME280;5663;50.864;12.096;2023-09-19T06:29:48;98896.56;;;18.07;82.02
11212;BME280;5663;50.864;12.096;2023-09-19T06:32:16;98895.88;;;18.05;82.07
11212;BME280;5663;50.864;12.096;2023-09-19T06:34:52;98908.19;;;18.14;82.08
11212;BME280;5663;50.864;12.096;2023-09-19T06:37:23;98898.38;;;18.16;82.19
11212;BME280;5663;50.864;12.096;2023-09-19T06:39:55;98915.56;;;18.20;82.02
11212;BME280;5663;50.864;12.096;2023-09-19T06:42:25;98918.75;;;18.24;82.22
11212;BME280;5663;50.864;12.096;2023-09-19T06:44:59;98899.06;;;18.18;82.17
11212;BME280;5663;50.864;12.096;2023-09-19T06:47:26;98903.78;;;18.34;82.10
11212;BME280;5663;50.864;12.096;2023-09-19T06:49:55;98913.88;;;18.39;81.74
11212;BME280;5663;50.864;12.096;2023-09-19T06:52:25;98889.09;;;18.32;81.25
11212;BME280;5663;50.864;12.096;2023-09-19T06:54:54;98915.13;;;18.54;81.37
11212;BME280;5663;50.864;12.096;2023-09-19T06:57:24;98921.78;;;18.58;80.89
11212;BME280;5663;50.864;12.096;2023-09-19T07:00:22;98924.53;;;18.66;80.55
11212;BME280;5663;50.864;12.096;2023-09-19T07:03:08;98929.28;;;18.73;79.35
11212;BME280;5663;50.864;12.096;2023-09-19T07:05:49;98899.59;;;18.61;78.89
11212;BME280;5663;50.864;12.096;2023-09-19T07:08:31;98930.09;;;18.83;78.28
11212;BME280;5663;50.864;12.096;2023-09-19T07:11:00;98933.72;;;18.91;77.61
11212;BME280;5663;50.864;12.096;2023-09-19T07:13:32;98932.00;;;19.00;76.92
11212;BME280;5663;50.864;12.096;2023-09-19T07:16:00;98917.84;;;19.01;76.55
11212;BME280;5663;50.864;12.096;2023-09-19T07:18:28;98936.66;;;19.26;76.12
11212;BME280;5663;50.864;12.096;2023-09-19T07:21:14;98935.25;;;19.31;76.01
11212;BME280;5663;50.864;12.096;2023-09-19T07:23:43;98936.31;;;19.38;75.26
11212;BME280;5663;50.864;12.096;2023-09-19T07:26:15;98936.72;;;19.43;74.77
11212;BME280;5663;50.864;12.096;2023-09-19T07:28:48;98948.78;;;19.46;74.33
11212;BME280;5663;50.864;12.096;2023-09-19T07:31:23;98950.47;;;19.47;73.61
11212;BME280;5663;50.864;12.096;2023-09-19T07:34:01;98953.78;;;19.49;72.94
11212;BME280;5663;50.864;12.096;2023-09-19T07:36:34;98951.84;;;19.51;72.67
11212;BME280;5663;50.864;12.096;2023-09-19T07:39:04;98957.63;;;19.55;72.27
11212;BME280;5663;50.864;12.096;2023-09-19T07:41:59;98959.84;;;19.59;71.76
11212;BME280;5663;50.864;12.096;2023-09-19T07:44:45;98960.69;;;19.60;71.53
11212;BME280;5663;50.864;12.096;2023-09-19T07:47:18;98977.22;;;19.62;71.30
11212;BME280;5663;50.864;12.096;2023-09-19T07:49:52;98984.00;;;19.64;70.22
11212;BME280;5663;50.864;12.096;2023-09-19T07:52:51;98989.00;;;19.67;69.28
11212;BME280;5663;50.864;12.096;2023-09-19T07:55:25;98990.06;;;19.75;69.73
11212;BME280;5663;50.864;12.096;2023-09-19T07:58:00;99000.03;;;19.81;69.64
11212;BME280;5663;50.864;12.096;2023-09-19T08:00:31;99008.06;;;19.89;68.97
11212;BME280;5663;50.864;12.096;2023-09-19T08:03:01;99009.81;;;19.98;68.24
11212;BME280;5663;50.864;12.096;2023-09-19T08:05:33;98996.63;;;19.98;67.94
11212;BME280;5663;50.864;12.096;2023-09-19T08:08:01;99023.44;;;20.21;68.55
11212;BME280;5663;50.864;12.096;2023-09-19T08:10:37;99016.44;;;20.30;68.09
11212;BME280;5663;50.864;12.096;2023-09-19T08:13:08;99030.72;;;20.37;67.66
11212;BME280;5663;50.864;12.096;2023-09-19T08:15:45;99028.47;;;20.42;67.02
11212;BME280;5663;50.864;12.096;2023-09-19T08:18:17;99029.69;;;20.48;67.38
11212;BME280;5663;50.864;12.096;2023-09-19T08:20:49;99026.91;;;20.49;66.11
11212;BME280;5663;50.864;12.096;2023-09-19T08:23:17;99023.28;;;20.50;65.08
11212;BME280;5663;50.864;12.096;2023-09-19T08:26:19;99029.28;;;20.52;65.01
11212;BME280;5663;50.864;12.096;2023-09-19T08:28:48;99027.97;;;20.56;64.75
11212;BME280;5663;50.864;12.096;2023-09-19T08:31:19;99024.88;;;20.61;64.78
11212;BME280;5663;50.864;12.096;2023-09-19T08:33:47;99017.34;;;20.66;64.86
11212;BME280;5663;50.864;12.096;2023-09-19T08:36:17;99019.22;;;20.74;64.56
11212;BME280;5663;50.864;12.096;2023-09-19T08:38:46;99025.56;;;20.81;64.11
11212;BME280;5663;50.864;12.096;2023-09-19T08:41:34;99027.63;;;20.87;63.62
11212;BME280;5663;50.864;12.096;2023-09-19T08:44:02;99029.34;;;20.96;64.12
11212;BME280;5663;50.864;12.096;2023-09-19T08:46:43;99031.53;;;21.01;63.45
11212;BME280;5663;50.864;12.096;2023-09-19T08:49:19;99011.13;;;20.93;63.24
11212;BME280;5663;50.864;12.096;2023-09-19T08:52:10;99036.94;;;21.17;62.54
11212;BME280;5663;50.864;12.096;2023-09-19T08:55:01;99041.44;;;21.25;61.62
11212;BME280;5663;50.864;12.096;2023-09-19T08:57:34;99038.22;;;21.31;61.01
11212;BME280;5663;50.864;12.096;2023-09-19T09:00:07;99023.97;;;21.32;60.92
11212;BME280;5663;50.864;12.096;2023-09-19T09:02:44;99038.66;;;21.44;61.00
11212;BME280;5663;50.864;12.096;2023-09-19T09:05:16;99021.16;;;21.51;60.44
11212;BME280;5663;50.864;12.096;2023-09-19T09:07:50;99044.75;;;21.71;58.89
11212;BME280;5663;50.864;12.096;2023-09-19T09:10:22;99043.13;;;21.78;58.55
11212;BME280;5663;50.864;12.096;2023-09-19T09:12:55;99032.19;;;21.73;57.24
11212;BME280;5663;50.864;12.096;2023-09-19T09:15:23;99034.34;;;21.77;57.18
11212;BME280;5663;50.864;12.096;2023-09-19T09:17:53;99027.63;;;21.83;56.78
11212;BME280;5663;50.864;12.096;2023-09-19T09:20:23;99025.16;;;21.89;57.18
11212;BME280;5663;50.864;12.096;2023-09-19T09:22:56;99029.06;;;22.11;56.97
11212;BME280;5663;50.864;12.096;2023-09-19T09:25:57;99033.44;;;22.37;57.59
11212;BME280;5663;50.864;12.096;2023-09-19T09:28:52;99022.88;;;22.45;56.93
11212;BME280;5663;50.864;12.096;2023-09-19T09:31:26;99036.16;;;22.61;56.81
11212;BME280;5663;50.864;12.096;2023-09-19T09:33:59;99027.22;;;22.71;55.61
11212;BME280;5663;50.864;12.096;2023-09-19T09:36:39;99022.59;;;22.81;55.97
11212;BME280;5663;50.864;12.096;2023-09-19T09:39:10;99034.22;;;23.04;54.99
11212;BME280;5663;50.864;12.096;2023-09-19T09:42:04;99038.38;;;23.07;55.43
11212;BME280;5663;50.864;12.096;2023-09-19T09:44:36;99042.88;;;23.06;55.26
11212;BME280;5663;50.864;12.096;2023-09-19T09:47:07;99049.13;;;23.14;55.11
11212;BME280;5663;50.864;12.096;2023-09-19T09:50:00;99040.72;;;23.18;55.22
11212;BME280;5663;50.864;12.096;2023-09-19T09:52:47;99045.50;;;23.23;55.29
11212;BME280;5663;50.864;12.096;2023-09-19T09:55:20;99054.81;;;23.10;53.72
11212;BME280;5663;50.864;12.096;2023-09-19T09:58:02;99053.63;;;22.97;53.21
11212;BME280;5663;50.864;12.096;2023-09-19T10:00:53;99052.16;;;22.94;52.75
11212;BME280;5663;50.864;12.096;2023-09-19T10:03:33;99042.50;;;22.93;53.15
11212;BME280;5663;50.864;12.096;2023-09-19T10:06:10;99035.84;;;22.89;52.15
11212;BME280;5663;50.864;12.096;2023-09-19T10:09:22;99044.81;;;22.88;51.64
11212;BME280;5663;50.864;12.096;2023-09-19T10:12:07;99050.31;;;23.03;52.12
11212;BME280;5663;50.864;12.096;2023-09-19T10:14:44;99053.47;;;23.15;52.66
11212;BME280;5663;50.864;12.096;2023-09-19T10:17:17;99052.13;;;23.27;51.68
11212;BME280;5663;50.864;12.096;2023-09-19T10:19:57;99048.31;;;23.29;52.24
11212;BME280;5663;50.864;12.096;2023-09-19T10:22:42;99052.47;;;23.32;51.61
11212;BME280;5663;50.864;12.096;2023-09-19T10:25:30;99053.78;;;23.28;51.52
11212;BME280;5663;50.864;12.096;2023-09-19T10:28:13;99051.13;;;23.28;51.19
11212;BME280;5663;50.864;12.096;2023-09-19T10:30:53;99049.97;;;23.30;50.78
11212;BME280;5663;50.864;12.096;2023-09-19T10:33:25;99046.16;;;23.25;51.52
11212;BME280;5663;50.864;12.096;2023-09-19T10:36:05;99063.41;;;23.29;51.96
11212;BME280;5663;50.864;12.096;2023-09-19T10:42:23;99060.25;;;23.25;50.29
11212;BME280;5663;50.864;12.096;2023-09-19T10:45:00;99056.41;;;23.44;51.82
11212;BME280;5663;50.864;12.096;2023-09-19T10:47:35;99059.72;;;23.63;51.33
11212;BME280;5663;50.864;12.096;2023-09-19T10:50:06;99057.56;;;23.74;49.96
11212;BME280;5663;50.864;12.096;2023-09-19T10:52:42;99061.03;;;23.83;49.43
11212;BME280;5663;50.864;12.096;2023-09-19T10:55:16;99060.00;;;23.84;49.23
11212;BME280;5663;50.864;12.096;2023-09-19T10:57:48;99045.63;;;23.70;49.54
11212;BME280;5663;50.864;12.096;2023-09-19T11:00:21;99056.38;;;23.77;50.07
11212;BME280;5663;50.864;12.096;2023-09-19T11:03:21;99057.69;;;23.81;49.80
11212;BME280;5663;50.864;12.096;2023-09-19T11:06:10;99062.38;;;23.79;49.53
11212;BME280;5663;50.864;12.096;2023-09-19T11:08:58;99060.03;;;23.76;49.51
11212;BME280;5663;50.864;12.096;2023-09-19T11:11:45;99056.03;;;23.80;48.97
11212;BME280;5663;50.864;12.096;2023-09-19T11:14:37;99051.00;;;23.93;47.75
11212;BME280;5663;50.864;12.096;2023-09-19T11:17:40;99052.84;;;23.93;47.64
11212;BME280;5663;50.864;12.096;2023-09-19T11:20:29;99050.19;;;23.93;48.42
11212;BME280;5663;50.864;12.096;2023-09-19T11:23:23;99051.69;;;23.95;47.42
11212;BME280;5663;50.864;12.096;2023-09-19T11:26:10;99039.03;;;23.97;47.09
11212;BME280;5663;50.864;12.096;2023-09-19T11:29:25;99041.81;;;24.12;47.05
11212;BME280;5663;50.864;12.096;2023-09-19T11:32:03;99014.75;;;24.08;47.92
11212;BME280;5663;50.864;12.096;2023-09-19T11:34:46;99039.81;;;24.45;46.15
11212;BME280;5663;50.864;12.096;2023-09-19T11:40:37;99036.09;;;24.63;45.62
11212;BME280;5663;50.864;12.096;2023-09-19T11:43:33;99031.09;;;24.60;44.94
11212;BME280;5663;50.864;12.096;2023-09-19T11:46:07;99038.41;;;24.57;45.53
11212;BME280;5663;50.864;12.096;2023-09-19T11:48:41;99042.00;;;24.50;45.09
11212;BME280;5663;50.864;12.096;2023-09-19T11:51:15;99018.63;;;24.29;44.84
11212;BME280;5663;50.864;12.096;2023-09-19T11:53:52;99035.25;;;24.31;46.65
11212;BME280;5663;50.864;12.096;2023-09-19T11:56:21;99040.94;;;24.20;46.33
11212;BME280;5663;50.864;12.096;2023-09-19T11:58:51;99035.31;;;24.15;47.03
11212;BME280;5663;50.864;12.096;2023-09-19T12:01:24;99030.06;;;24.06;46.01
11212;BME280;5663;50.864;12.096;2023-09-19T12:04:00;99034.53;;;24.06;47.58
11212;BME280;5663;50.864;12.096;2023-09-19T12:06:42;99028.03;;;24.08;47.08
11212;BME280;5663;50.864;12.096;2023-09-19T12:09:15;99023.06;;;24.05;46.97
11212;BME280;5663;50.864;12.096;2023-09-19T12:11:52;99025.56;;;24.07;46.83
11212;BME280;5663;50.864;12.096;2023-09-19T12:14:23;99025.69;;;24.14;45.77
11212;BME280;5663;50.864;12.096;2023-09-19T12:16:54;99019.00;;;24.26;46.39
11212;BME280;5663;50.864;12.096;2023-09-19T12:19:25;99019.75;;;24.43;45.85
11212;BME280;5663;50.864;12.096;2023-09-19T12:21:57;99023.19;;;24.51;45.83
11212;BME280;5663;50.864;12.096;2023-09-19T12:24:31;99010.72;;;24.52;45.09
11212;BME280;5663;50.864;12.096;2023-09-19T12:27:22;99018.09;;;24.65;44.48
11212;BME280;5663;50.864;12.096;2023-09-19T12:29:53;99015.84;;;24.53;43.69
11212;BME280;5663;50.864;12.096;2023-09-19T12:32:34;99013.63;;;24.42;43.46
11212;BME280;5663;50.864;12.096;2023-09-19T12:35:26;98966.63;;;24.03;43.96
11212;BME280;5663;50.864;12.096;2023-09-19T12:37:55;99011.94;;;24.41;44.36
11212;BME280;5663;50.864;12.096;2023-09-19T12:40:52;99018.75;;;24.44;43.70
11212;BME280;5663;50.864;12.096;2023-09-19T12:44:03;99016.63;;;24.31;43.51
11212;BME280;5663;50.864;12.096;2023-09-19T12:46:44;99011.31;;;24.31;43.83
11212;BME280;5663;50.864;12.096;2023-09-19T12:49:20;99009.47;;;24.40;43.00
11212;BME280;5663;50.864;12.096;2023-09-19T12:54:48;99005.94;;;24.47;42.75
11212;BME280;5663;50.864;12.096;2023-09-19T12:57:26;99009.34;;;24.56;42.90
11212;BME280;5663;50.864;12.096;2023-09-19T13:00:05;99007.41;;;24.73;43.78
11212;BME280;5663;50.864;12.096;2023-09-19T13:11:51;98982.91;;;24.63;42.80
11212;BME280;5663;50.864;12.096;2023-09-19T13:17:57;99008.88;;;24.98;41.72
11212;BME280;5663;50.864;12.096;2023-09-19T13:21:06;99005.56;;;24.96;41.74
11212;BME280;5663;50.864;12.096;2023-09-19T13:30:14;99011.81;;;25.03;41.36
11212;BME280;5663;50.864;12.096;2023-09-19T13:32:49;99007.31;;;25.04;41.00
11212;BME280;5663;50.864;12.096;2023-09-19T13:35:21;99008.81;;;25.06;41.41
11212;BME280;5663;50.864;12.096;2023-09-19T13:38:18;99004.13;;;25.08;39.66
11212;BME280;5663;50.864;12.096;2023-09-19T13:40:54;99000.50;;;25.10;41.26
11212;BME280;5663;50.864;12.096;2023-09-19T13:43:26;99016.47;;;25.10;40.70
11212;BME280;5663;50.864;12.096;2023-09-19T13:45:59;99006.38;;;24.97;40.16
11212;BME280;5663;50.864;12.096;2023-09-19T13:52:33;98999.06;;;24.76;39.27
11212;BME280;5663;50.864;12.096;2023-09-19T13:55:32;99016.53;;;24.78;40.38
11212;BME280;5663;50.864;12.096;2023-09-19T13:58:00;99003.75;;;24.74;40.34
11212;BME280;5663;50.864;12.096;2023-09-19T14:01:04;99006.03;;;24.77;39.33
11212;BME280;5663;50.864;12.096;2023-09-19T14:03:51;99008.06;;;24.75;40.46
11212;BME280;5663;50.864;12.096;2023-09-19T14:06:28;99010.06;;;24.73;39.74
11212;BME280;5663;50.864;12.096;2023-09-19T14:09:08;99008.41;;;24.72;40.70
11212;BME280;5663;50.864;12.096;2023-09-19T14:16:38;99001.78;;;24.68;40.05
11212;BME280;5663;50.864;12.096;2023-09-19T14:19:16;99001.31;;;24.64;40.72
11212;BME280;5663;50.864;12.096;2023-09-19T14:21:56;98995.88;;;24.57;40.81
11212;BME280;5663;50.864;12.096;2023-09-19T14:25:02;98996.88;;;24.56;41.42
11212;BME280;5663;50.864;12.096;2023-09-19T14:27:37;98995.59;;;24.52;40.57
11212;BME280;5663;50.864;12.096;2023-09-19T14:30:17;99002.78;;;24.44;40.76
11212;BME280;5663;50.864;12.096;2023-09-19T14:32:50;98991.88;;;24.39;40.86
11212;BME280;5663;50.864;12.096;2023-09-19T14:43:04;98995.72;;;24.28;40.92
11212;BME280;5663;50.864;12.096;2023-09-19T14:46:05;98986.38;;;24.32;40.83
11212;BME280;5663;50.864;12.096;2023-09-19T14:49:08;98995.38;;;24.31;40.04
11212;BME280;5663;50.864;12.096;2023-09-19T14:51:37;98990.88;;;24.31;39.92
11212;BME280;5663;50.864;12.096;2023-09-19T14:57:52;98994.06;;;24.27;39.62
11212;BME280;5663;50.864;12.096;2023-09-19T15:00:06;99003.06;;;24.26;39.37
11212;BME280;5663;50.864;12.096;2023-09-19T15:02:56;98995.75;;;24.20;39.40
11212;BME280;5663;50.864;12.096;2023-09-19T15:05:29;98967.31;;;23.97;39.60
11212;BME280;5663;50.864;12.096;2023-09-19T15:07:56;98995.81;;;24.12;39.78
11212;BME280;5663;50.864;12.096;2023-09-19T15:10:33;99006.44;;;24.12;40.46
11212;BME280;5663;50.864;12.096;2023-09-19T15:13:07;99000.13;;;24.13;40.47
11212;BME280;5663;50.864;12.096;2023-09-19T15:15:35;98999.47;;;24.11;40.22
11212;BME280;5663;50.864;12.096;2023-09-19T15:18:03;98995.84;;;24.03;40.62
11212;BME280;5663;50.864;12.096;2023-09-19T15:20:43;99003.16;;;24.01;39.82
11212;BME280;5663;50.864;12.096;2023-09-19T15:23:13;98996.03;;;23.94;39.33
11212;BME280;5663;50.864;12.096;2023-09-19T15:25:49;98995.63;;;23.82;38.42
11212;BME280;5663;50.864;12.096;2023-09-19T15:28:35;98987.69;;;23.74;38.24
11212;BME280;5663;50.864;12.096;2023-09-19T15:31:08;98985.38;;;23.63;38.16
11212;BME280;5663;50.864;12.096;2023-09-19T15:33:40;98989.00;;;23.61;39.36
11212;BME280;5663;50.864;12.096;2023-09-19T15:36:11;99000.00;;;23.58;39.29
11212;BME280;5663;50.864;12.096;2023-09-19T15:39:05;98983.06;;;23.51;38.83
11212;BME280;5663;50.864;12.096;2023-09-19T15:41:38;98978.94;;;23.49;39.22
11212;BME280;5663;50.864;12.096;2023-09-19T15:44:13;98980.78;;;23.40;39.59
11212;BME280;5663;50.864;12.096;2023-09-19T15:46:59;98977.81;;;23.35;39.78
11212;BME280;5663;50.864;12.096;2023-09-19T15:49:32;98948.69;;;23.10;40.64
11212;BME280;5663;50.864;12.096;2023-09-19T15:52:07;98996.41;;;23.35;39.89
11212;BME280;5663;50.864;12.096;2023-09-19T15:54:55;98978.47;;;23.29;40.24
11212;BME280;5663;50.864;12.096;2023-09-19T15:57:26;98972.19;;;23.22;40.11
11212;BME280;5663;50.864;12.096;2023-09-19T15:59:54;98997.38;;;23.26;40.00
11212;BME280;5663;50.864;12.096;2023-09-19T16:02:23;98978.50;;;23.13;39.80
11212;BME280;5663;50.864;12.096;2023-09-19T16:04:54;98996.06;;;23.14;40.26
11212;BME280;5663;50.864;12.096;2023-09-19T16:07:24;98999.25;;;23.09;40.55
11212;BME280;5663;50.864;12.096;2023-09-19T16:10:16;99005.72;;;23.06;40.48
11212;BME280;5663;50.864;12.096;2023-09-19T16:13:03;99008.03;;;23.01;41.04
11212;BME280;5663;50.864;12.096;2023-09-19T16:15:32;99002.38;;;22.88;41.43
11212;BME280;5663;50.864;12.096;2023-09-19T16:18:00;99012.97;;;22.88;40.58
11212;BME280;5663;50.864;12.096;2023-09-19T16:20:35;99012.31;;;22.78;40.33
11212;BME280;5663;50.864;12.096;2023-09-19T16:23:07;99021.56;;;22.74;40.85
11212;BME280;5663;50.864;12.096;2023-09-19T16:25:39;99005.53;;;22.67;41.33
11212;BME280;5663;50.864;12.096;2023-09-19T16:28:24;99016.78;;;22.61;41.62
11212;BME280;5663;50.864;12.096;2023-09-19T16:30:52;99011.97;;;22.56;41.25
11212;BME280;5663;50.864;12.096;2023-09-19T16:33:46;99012.78;;;22.49;41.98
11212;BME280;5663;50.864;12.096;2023-09-19T16:36:15;99005.97;;;22.38;40.93